sensor_id;sensor_type;location;lat;lon;timestamp;pressure;altitude;pressure_sealevel;temperature;humidity
80566;BME280;69915;54.862;10.730;2024-01-25T00:01:24;101013.25;;;7.52;88.10
80566;BME280;69915;54.862;10.730;2024-01-25T00:03:50;101023.31;;;7.51;88.33
80566;BME280;69915;54.862;10.730;2024-01-25T00:06:15;101043.72;;;7.49;88.41
80566;BME280;69915;54.862;10.730;2024-01-25T00:08:41;101047.53;;;7.53;88.38
80566;BME280;69915;54.862;10.730;2024-01-25T00:11:06;101029.00;;;7.50;88.31
80566;BME280;69915;54.862;10.730;2024-01-25T00:13:32;101052.44;;;7.51;88.91
80566;BME280;69915;54.862;10.730;2024-01-25T00:15:57;101049.97;;;7.49;88.46
80566;BME280;69915;54.862;10.730;2024-01-25T00:18:23;101066.56;;;7.53;88.46
80566;BME280;69915;54.862;10.730;2024-01-25T00:20:49;101067.94;;;7.50;88.27
80566;BME280;69915;54.862;10.730;2024-01-25T00:23:15;101057.03;;;7.45;87.65
80566;BME280;69915;54.862;10.730;2024-01-25T00:25:40;101058.94;;;7.45;88.09
80566;BME280;69915;54.862;10.730;2024-01-25T00:28:06;101078.50;;;7.47;87.71
80566;BME280;69915;54.862;10.730;2024-01-25T00:30:31;101072.53;;;7.50;87.51
80566;BME280;69915;54.862;10.730;2024-01-25T00:32:57;101087.25;;;7.49;87.58
80566;BME280;69915;54.862;10.730;2024-01-25T00:35:24;101090.22;;;7.47;87.45
80566;BME280;69915;54.862;10.730;2024-01-25T00:37:49;101085.06;;;7.46;87.51
80566;BME280;69915;54.862;10.730;2024-01-25T00:40:15;101076.91;;;7.46;87.53
80566;BME280;69915;54.862;10.730;2024-01-25T00:42:43;101099.50;;;7.51;87.68
80566;BME280;69915;54.862;10.730;2024-01-25T00:45:11;101084.78;;;7.47;87.48
80566;BME280;69915;54.862;10.730;2024-01-25T00:47:37;101085.63;;;7.53;87.40
80566;BME280;69915;54.862;10.730;2024-01-25T00:50:04;101070.09;;;7.48;87.49
80566;BME280;69915;54.862;10.730;2024-01-25T00:52:30;101107.91;;;7.50;87.18
80566;BME280;69915;54.862;10.730;2024-01-25T00:54:56;101088.31;;;7.48;87.87
80566;BME280;69915;54.862;10.730;2024-01-25T00:57:21;101113.03;;;7.41;87.92
80566;BME280;69915;54.862;10.730;2024-01-25T00:59:47;101091.56;;;7.40;88.27
80566;BME280;69915;54.862;10.730;2024-01-25T01:02:13;101111.13;;;7.42;88.17
80566;BME280;69915;54.862;10.730;2024-01-25T01:04:40;101086.13;;;7.40;87.78
80566;BME280;69915;54.862;10.730;2024-01-25T01:07:06;101119.53;;;7.40;87.73
80566;BME280;69915;54.862;10.730;2024-01-25T01:09:32;101125.78;;;7.36;87.84
80566;BME280;69915;54.862;10.730;2024-01-25T01:11:57;101113.25;;;7.35;88.06
80566;BME280;69915;54.862;10.730;2024-01-25T01:14:23;101118.69;;;7.35;88.50
80566;BME280;69915;54.862;10.730;2024-01-25T01:16:48;101127.66;;;7.30;88.41
80566;BME280;69915;54.862;10.730;2024-01-25T01:19:16;101115.97;;;7.30;88.76
80566;BME280;69915;54.862;10.730;2024-01-25T01:21:41;101136.59;;;7.26;88.97
80566;BME280;69915;54.862;10.730;2024-01-25T01:24:10;101137.94;;;7.23;88.89
80566;BME280;69915;54.862;10.730;2024-01-25T01:26:36;101150.25;;;7.31;89.18
80566;BME280;69915;54.862;10.730;2024-01-25T01:29:02;101150.19;;;7.26;88.73
80566;BME280;69915;54.862;10.730;2024-01-25T01:31:28;101146.66;;;7.25;88.97
80566;BME280;69915;54.862;10.730;2024-01-25T01:33:53;101157.22;;;7.22;89.64
80566;BME280;69915;54.862;10.730;2024-01-25T01:36:19;101157.16;;;7.11;89.57
80566;BME280;69915;54.862;10.730;2024-01-25T01:38:45;101165.50;;;7.00;90.34
80566;BME280;69915;54.862;10.730;2024-01-25T01:41:11;101176.09;;;7.01;91.29
80566;BME280;69915;54.862;10.730;2024-01-25T01:43:39;101173.06;;;6.98;91.51
80566;BME280;69915;54.862;10.730;2024-01-25T01:46:14;101179.59;;;6.97;91.15
80566;BME280;69915;54.862;10.730;2024-01-25T01:48:45;101192.63;;;6.95;91.35
80566;BME280;69915;54.862;10.730;2024-01-25T01:51:11;101211.06;;;6.88;91.65
80566;BME280;69915;54.862;10.730;2024-01-25T01:53:36;101199.66;;;6.91;91.86
80566;BME280;69915;54.862;10.730;2024-01-25T01:56:02;101187.44;;;6.93;92.22
80566;BME280;69915;54.862;10.730;2024-01-25T01:58:28;101150.75;;;6.91;92.17
80566;BME280;69915;54.862;10.730;2024-01-25T02:00:55;101218.31;;;6.82;92.03
80566;BME280;69915;54.862;10.730;2024-01-25T02:03:22;101199.13;;;6.67;92.38
80566;BME280;69915;54.862;10.730;2024-01-25T02:05:47;101209.47;;;6.70;92.72
80566;BME280;69915;54.862;10.730;2024-01-25T02:08:13;101196.41;;;6.67;93.17
80566;BME280;69915;54.862;10.730;2024-01-25T02:10:38;101204.25;;;6.64;92.91
80566;BME280;69915;54.862;10.730;2024-01-25T02:13:04;101201.75;;;6.57;93.49
80566;BME280;69915;54.862;10.730;2024-01-25T02:15:29;101195.81;;;6.60;93.46
80566;BME280;69915;54.862;10.730;2024-01-25T02:17:55;101201.53;;;6.64;93.83
80566;BME280;69915;54.862;10.730;2024-01-25T02:20:21;101190.66;;;6.64;93.20
80566;BME280;69915;54.862;10.730;2024-01-25T02:22:47;101196.91;;;6.64;92.98
80566;BME280;69915;54.862;10.730;2024-01-25T02:25:12;101207.88;;;6.69;93.32
80566;BME280;69915;54.862;10.730;2024-01-25T02:27:38;101227.94;;;6.68;93.16
80566;BME280;69915;54.862;10.730;2024-01-25T02:30:07;101220.25;;;6.60;92.92
80566;BME280;69915;54.862;10.730;2024-01-25T02:32:33;101214.00;;;6.60;92.70
80566;BME280;69915;54.862;10.730;2024-01-25T02:34:58;101201.16;;;6.55;92.07
80566;BME280;69915;54.862;10.730;2024-01-25T02:37:24;101246.28;;;6.56;92.13
80566;BME280;69915;54.862;10.730;2024-01-25T02:39:50;101202.50;;;6.52;92.60
80566;BME280;69915;54.862;10.730;2024-01-25T02:42:16;101208.97;;;6.46;92.27
80566;BME280;69915;54.862;10.730;2024-01-25T02:44:43;101212.44;;;6.42;93.14
80566;BME280;69915;54.862;10.730;2024-01-25T02:47:08;101233.44;;;6.51;93.15
80566;BME280;69915;54.862;10.730;2024-01-25T02:49:34;101236.50;;;6.55;93.31
80566;BME280;69915;54.862;10.730;2024-01-25T02:52:00;101234.66;;;6.61;92.74
80566;BME280;69915;54.862;10.730;2024-01-25T02:54:25;101242.28;;;6.64;92.24
80566;BME280;69915;54.862;10.730;2024-01-25T02:57:25;101251.53;;;6.63;91.98
80566;BME280;69915;54.862;10.730;2024-01-25T02:59:52;101259.41;;;6.64;92.67
80566;BME280;69915;54.862;10.730;2024-01-25T03:02:18;101267.84;;;6.63;92.38
80566;BME280;69915;54.862;10.730;2024-01-25T03:04:46;101234.03;;;6.53;92.29
80566;BME280;69915;54.862;10.730;2024-01-25T03:07:11;101254.44;;;6.56;92.20
80566;BME280;69915;54.862;10.730;2024-01-25T03:09:37;101279.44;;;6.58;92.56
80566;BME280;69915;54.862;10.730;2024-01-25T03:12:03;101287.03;;;6.56;92.01
80566;BME280;69915;54.862;10.730;2024-01-25T03:14:28;101273.25;;;6.63;91.84
80566;BME280;69915;54.862;10.730;2024-01-25T03:16:54;101298.22;;;6.60;91.80
80566;BME280;69915;54.862;10.730;2024-01-25T03:19:19;101305.03;;;6.62;92.13
80566;BME280;69915;54.862;10.730;2024-01-25T03:21:45;101295.81;;;6.63;92.05
80566;BME280;69915;54.862;10.730;2024-01-25T03:24:10;101283.53;;;6.61;91.94
80566;BME280;69915;54.862;10.730;2024-01-25T03:26:35;101287.69;;;6.63;92.03
80566;BME280;69915;54.862;10.730;2024-01-25T03:29:01;101275.66;;;6.59;92.28
80566;BME280;69915;54.862;10.730;2024-01-25T03:31:26;101284.97;;;6.63;91.73
80566;BME280;69915;54.862;10.730;2024-01-25T03:33:52;101314.25;;;6.61;91.98
80566;BME280;69915;54.862;10.730;2024-01-25T03:36:17;101323.00;;;6.63;92.24
80566;BME280;69915;54.862;10.730;2024-01-25T03:38:43;101327.00;;;6.61;92.73
80566;BME280;69915;54.862;10.730;2024-01-25T03:41:08;101356.59;;;6.57;92.79
80566;BME280;69915;54.862;10.730;2024-01-25T03:43:35;101359.94;;;6.64;93.13
80566;BME280;69915;54.862;10.730;2024-01-25T03:46:00;101347.38;;;6.58;93.49
80566;BME280;69915;54.862;10.730;2024-01-25T03:48:26;101345.75;;;6.57;92.93
80566;BME280;69915;54.862;10.730;2024-01-25T03:50:51;101352.78;;;6.58;93.25
80566;BME280;69915;54.862;10.730;2024-01-25T03:53:24;101370.81;;;6.64;93.47
80566;BME280;69915;54.862;10.730;2024-01-25T03:55:50;101373.53;;;6.64;93.41
80566;BME280;69915;54.862;10.730;2024-01-25T03:58:18;101373.03;;;6.67;93.33
80566;BME280;69915;54.862;10.730;2024-01-25T04:00:44;101386.38;;;6.69;93.39
80566;BME280;69915;54.862;10.730;2024-01-25T04:03:10;101374.69;;;6.68;93.14
80566;BME280;69915;54.862;10.730;2024-01-25T04:05:36;101386.38;;;6.69;93.22
80566;BME280;69915;54.862;10.730;2024-01-25T04:08:03;101377.63;;;6.67;92.68
80566;BME280;69915;54.862;10.730;2024-01-25T04:10:29;101393.13;;;6.66;91.63
80566;BME280;69915;54.862;10.730;2024-01-25T04:12:54;101392.03;;;6.67;91.58
80566;BME280;69915;54.862;10.730;2024-01-25T04:15:20;101408.44;;;6.72;91.66
80566;BME280;69915;54.862;10.730;2024-01-25T04:17:45;101409.16;;;6.68;91.90
80566;BME280;69915;54.862;10.730;2024-01-25T04:20:11;101416.28;;;6.52;91.75
80566;BME280;69915;54.862;10.730;2024-01-25T04:22:37;101429.31;;;6.50;92.56
80566;BME280;69915;54.862;10.730;2024-01-25T04:25:03;101436.47;;;6.39;92.79
80566;BME280;69915;54.862;10.730;2024-01-25T04:27:30;101423.13;;;6.38;93.29
80566;BME280;69915;54.862;10.730;2024-01-25T04:29:55;101434.16;;;6.31;93.22
80566;BME280;69915;54.862;10.730;2024-01-25T04:32:21;101441.97;;;6.28;93.05
80566;BME280;69915;54.862;10.730;2024-01-25T04:34:46;101433.19;;;6.21;93.55
80566;BME280;69915;54.862;10.730;2024-01-25T04:37:13;101449.00;;;6.24;93.86
80566;BME280;69915;54.862;10.730;2024-01-25T04:39:39;101440.25;;;6.22;93.77
80566;BME280;69915;54.862;10.730;2024-01-25T04:42:05;101432.59;;;6.19;93.18
80566;BME280;69915;54.862;10.730;2024-01-25T04:44:30;101442.31;;;6.15;93.15
80566;BME280;69915;54.862;10.730;2024-01-25T04:46:56;101451.03;;;6.17;93.46
80566;BME280;69915;54.862;10.730;2024-01-25T04:49:22;101447.72;;;6.15;93.21
80566;BME280;69915;54.862;10.730;2024-01-25T04:51:47;101453.66;;;6.12;92.58
80566;BME280;69915;54.862;10.730;2024-01-25T04:54:13;101467.00;;;6.13;92.96
80566;BME280;69915;54.862;10.730;2024-01-25T04:56:41;101472.66;;;6.12;93.20
80566;BME280;69915;54.862;10.730;2024-01-25T04:59:07;101491.66;;;6.12;92.74
80566;BME280;69915;54.862;10.730;2024-01-25T05:01:32;101500.63;;;6.12;93.17
80566;BME280;69915;54.862;10.730;2024-01-25T05:03:58;101500.78;;;6.06;93.10
80566;BME280;69915;54.862;10.730;2024-01-25T05:06:23;101504.59;;;6.05;93.00
80566;BME280;69915;54.862;10.730;2024-01-25T05:08:49;101522.00;;;6.09;92.57
80566;BME280;69915;54.862;10.730;2024-01-25T05:11:14;101513.44;;;6.00;93.02
80566;BME280;69915;54.862;10.730;2024-01-25T05:13:40;101512.78;;;5.93;93.37
80566;BME280;69915;54.862;10.730;2024-01-25T05:16:05;101519.75;;;5.89;93.37
80566;BME280;69915;54.862;10.730;2024-01-25T05:18:31;101517.28;;;5.87;93.62
80566;BME280;69915;54.862;10.730;2024-01-25T05:20:56;101522.50;;;5.77;95.11
80566;BME280;69915;54.862;10.730;2024-01-25T05:23:23;101527.59;;;5.74;95.22
80566;BME280;69915;54.862;10.730;2024-01-25T05:25:48;101539.16;;;5.69;95.47
80566;BME280;69915;54.862;10.730;2024-01-25T05:28:14;101545.41;;;5.70;95.33
80566;BME280;69915;54.862;10.730;2024-01-25T05:30:39;101551.66;;;5.70;95.62
80566;BME280;69915;54.862;10.730;2024-01-25T05:33:04;101561.94;;;5.68;95.69
80566;BME280;69915;54.862;10.730;2024-01-25T05:35:30;101559.09;;;5.63;95.67
80566;BME280;69915;54.862;10.730;2024-01-25T05:37:55;101574.41;;;5.69;95.83
80566;BME280;69915;54.862;10.730;2024-01-25T05:40:21;101571.34;;;5.66;95.80
80566;BME280;69915;54.862;10.730;2024-01-25T05:42:46;101577.59;;;5.66;95.41
80566;BME280;69915;54.862;10.730;2024-01-25T05:45:12;101584.69;;;5.67;95.75
80566;BME280;69915;54.862;10.730;2024-01-25T05:47:37;101581.75;;;5.69;95.58
80566;BME280;69915;54.862;10.730;2024-01-25T05:50:03;101605.22;;;5.75;95.27
80566;BME280;69915;54.862;10.730;2024-01-25T05:52:30;101590.22;;;5.72;95.51
80566;BME280;69915;54.862;10.730;2024-01-25T05:54:55;101591.16;;;5.66;95.55
80566;BME280;69915;54.862;10.730;2024-01-25T05:57:21;101590.34;;;5.66;95.67
80566;BME280;69915;54.862;10.730;2024-01-25T05:59:46;101590.34;;;5.66;95.71
80566;BME280;69915;54.862;10.730;2024-01-25T06:02:13;101585.16;;;5.64;95.46
80566;BME280;69915;54.862;10.730;2024-01-25T06:04:38;101602.28;;;5.65;95.45
80566;BME280;69915;54.862;10.730;2024-01-25T06:07:04;101619.25;;;5.60;95.94
80566;BME280;69915;54.862;10.730;2024-01-25T06:09:30;101617.16;;;5.62;95.98
80566;BME280;69915;54.862;10.730;2024-01-25T06:11:57;101628.00;;;5.62;95.99
80566;BME280;69915;54.862;10.730;2024-01-25T06:14:22;101629.41;;;5.65;95.68
80566;BME280;69915;54.862;10.730;2024-01-25T06:16:48;101637.19;;;5.61;96.30
80566;BME280;69915;54.862;10.730;2024-01-25T06:19:13;101642.63;;;5.61;96.21
80566;BME280;69915;54.862;10.730;2024-01-25T06:21:39;101624.09;;;5.58;96.23
80566;BME280;69915;54.862;10.730;2024-01-25T06:24:04;101651.81;;;5.60;96.47
80566;BME280;69915;54.862;10.730;2024-01-25T06:26:30;101665.38;;;5.60;96.56
80566;BME280;69915;54.862;10.730;2024-01-25T06:28:56;101664.91;;;5.63;96.14
80566;BME280;69915;54.862;10.730;2024-01-25T06:31:22;101673.28;;;5.62;96.55
80566;BME280;69915;54.862;10.730;2024-01-25T06:33:48;101677.41;;;5.64;96.66
80566;BME280;69915;54.862;10.730;2024-01-25T06:36:16;101674.22;;;5.67;96.65
80566;BME280;69915;54.862;10.730;2024-01-25T06:38:42;101685.16;;;5.72;96.16
80566;BME280;69915;54.862;10.730;2024-01-25T06:41:08;101684.47;;;5.77;96.25
80566;BME280;69915;54.862;10.730;2024-01-25T06:43:34;101676.09;;;5.78;96.35
80566;BME280;69915;54.862;10.730;2024-01-25T06:45:59;101676.22;;;5.83;96.02
80566;BME280;69915;54.862;10.730;2024-01-25T06:48:25;101691.41;;;5.84;96.33
80566;BME280;69915;54.862;10.730;2024-01-25T06:50:50;101700.38;;;5.85;96.16
80566;BME280;69915;54.862;10.730;2024-01-25T06:53:16;101699.22;;;5.81;95.92
80566;BME280;69915;54.862;10.730;2024-01-25T06:55:42;101707.00;;;5.77;95.67
80566;BME280;69915;54.862;10.730;2024-01-25T06:58:08;101712.19;;;5.79;95.69
80566;BME280;69915;54.862;10.730;2024-01-25T07:00:33;101705.34;;;5.76;95.91
80566;BME280;69915;54.862;10.730;2024-01-25T07:02:59;101726.13;;;5.71;96.10
80566;BME280;69915;54.862;10.730;2024-01-25T07:05:25;101714.69;;;5.69;96.16
80566;BME280;69915;54.862;10.730;2024-01-25T07:07:51;101732.25;;;5.66;95.82
80566;BME280;69915;54.862;10.730;2024-01-25T07:10:17;101719.75;;;5.65;96.24
80566;BME280;69915;54.862;10.730;2024-01-25T07:12:42;101718.56;;;5.61;96.06
80566;BME280;69915;54.862;10.730;2024-01-25T07:15:08;101724.09;;;5.55;96.06
80566;BME280;69915;54.862;10.730;2024-01-25T07:17:34;101730.94;;;5.57;96.58
80566;BME280;69915;54.862;10.730;2024-01-25T07:19:59;101736.38;;;5.57;96.24
80566;BME280;69915;54.862;10.730;2024-01-25T07:22:25;101765.16;;;5.58;95.90
80566;BME280;69915;54.862;10.730;2024-01-25T07:24:50;101761.25;;;5.54;96.32
80566;BME280;69915;54.862;10.730;2024-01-25T07:27:16;101764.81;;;5.55;96.61
80566;BME280;69915;54.862;10.730;2024-01-25T07:29:44;101770.47;;;5.53;97.06
80566;BME280;69915;54.862;10.730;2024-01-25T07:32:11;101771.28;;;5.54;96.47
80566;BME280;69915;54.862;10.730;2024-01-25T07:34:36;101777.31;;;5.56;96.77
80566;BME280;69915;54.862;10.730;2024-01-25T07:37:03;101774.59;;;5.56;97.04
80566;BME280;69915;54.862;10.730;2024-01-25T07:39:28;101773.97;;;5.54;96.39
80566;BME280;69915;54.862;10.730;2024-01-25T07:41:54;101785.56;;;5.49;96.77
80566;BME280;69915;54.862;10.730;2024-01-25T07:44:19;101786.13;;;5.51;96.52
80566;BME280;69915;54.862;10.730;2024-01-25T07:46:45;101801.09;;;5.54;97.07
80566;BME280;69915;54.862;10.730;2024-01-25T07:49:10;101806.53;;;5.54;97.17
80566;BME280;69915;54.862;10.730;2024-01-25T07:51:36;101819.41;;;5.58;97.08
80566;BME280;69915;54.862;10.730;2024-01-25T07:54:01;101827.09;;;5.61;96.55
80566;BME280;69915;54.862;10.730;2024-01-25T07:56:27;101823.06;;;5.64;96.47
80566;BME280;69915;54.862;10.730;2024-01-25T07:58:53;101813.63;;;5.66;96.30
80566;BME280;69915;54.862;10.730;2024-01-25T08:01:19;101816.97;;;5.68;96.00
80566;BME280;69915;54.862;10.730;2024-01-25T08:03:45;101806.69;;;5.70;96.13
80566;BME280;69915;54.862;10.730;2024-01-25T08:06:10;101799.59;;;5.69;95.79
80566;BME280;69915;54.862;10.730;2024-01-25T08:08:36;101800.78;;;5.73;95.81
80566;BME280;69915;54.862;10.730;2024-01-25T08:11:02;101812.00;;;5.77;95.10
80566;BME280;69915;54.862;10.730;2024-01-25T08:13:32;101819.78;;;5.73;95.54
80566;BME280;69915;54.862;10.730;2024-01-25T08:15:57;101805.38;;;5.73;95.37
80566;BME280;69915;54.862;10.730;2024-01-25T08:18:23;101825.56;;;5.77;95.43
80566;BME280;69915;54.862;10.730;2024-01-25T08:20:49;101825.94;;;5.80;95.22
80566;BME280;69915;54.862;10.730;2024-01-25T08:23:18;101825.31;;;5.78;95.51
80566;BME280;69915;54.862;10.730;2024-01-25T08:25:44;101816.72;;;5.81;95.26
80566;BME280;69915;54.862;10.730;2024-01-25T08:28:10;101822.31;;;5.86;95.39
80566;BME280;69915;54.862;10.730;2024-01-25T08:30:35;101841.06;;;5.88;95.19
80566;BME280;69915;54.862;10.730;2024-01-25T08:33:01;101843.56;;;5.89;95.41
80566;BME280;69915;54.862;10.730;2024-01-25T08:35:26;101829.25;;;5.94;94.72
80566;BME280;69915;54.862;10.730;2024-01-25T08:37:52;101844.72;;;5.93;94.66
80566;BME280;69915;54.862;10.730;2024-01-25T08:40:17;101865.63;;;5.93;95.10
80566;BME280;69915;54.862;10.730;2024-01-25T08:42:43;101868.81;;;6.01;94.95
80566;BME280;69915;54.862;10.730;2024-01-25T08:45:08;101870.44;;;6.02;94.99
80566;BME280;69915;54.862;10.730;2024-01-25T08:47:37;101873.16;;;6.02;94.87
80566;BME280;69915;54.862;10.730;2024-01-25T08:50:03;101875.78;;;6.09;94.74
80566;BME280;69915;54.862;10.730;2024-01-25T08:52:30;101876.59;;;6.10;94.27
80566;BME280;69915;54.862;10.730;2024-01-25T08:54:56;101882.75;;;6.17;94.56
80566;BME280;69915;54.862;10.730;2024-01-25T08:57:21;101871.28;;;6.15;94.45
80566;BME280;69915;54.862;10.730;2024-01-25T08:59:47;101864.47;;;6.24;94.34
80566;BME280;69915;54.862;10.730;2024-01-25T09:02:13;101865.03;;;6.26;94.27
80566;BME280;69915;54.862;10.730;2024-01-25T09:04:39;101874.72;;;6.22;93.75
80566;BME280;69915;54.862;10.730;2024-01-25T09:07:05;101885.72;;;6.27;94.33
80566;BME280;69915;54.862;10.730;2024-01-25T09:09:31;101892.91;;;6.33;93.61
80566;BME280;69915;54.862;10.730;2024-01-25T09:11:56;101889.59;;;6.31;94.10
80566;BME280;69915;54.862;10.730;2024-01-25T09:14:22;101880.88;;;6.29;93.74
80566;BME280;69915;54.862;10.730;2024-01-25T09:16:48;101894.06;;;6.37;93.46
80566;BME280;69915;54.862;10.730;2024-01-25T09:19:13;101894.06;;;6.37;93.40
80566;BME280;69915;54.862;10.730;2024-01-25T09:21:39;101901.66;;;6.35;93.82
80566;BME280;69915;54.862;10.730;2024-01-25T09:24:05;101910.84;;;6.34;93.72
80566;BME280;69915;54.862;10.730;2024-01-25T09:26:32;101920.19;;;6.38;93.28
80566;BME280;69915;54.862;10.730;2024-01-25T09:28:57;101924.09;;;6.42;93.37
80566;BME280;69915;54.862;10.730;2024-01-25T09:31:23;101930.00;;;6.39;93.45
80566;BME280;69915;54.862;10.730;2024-01-25T09:33:48;101936.13;;;6.46;93.53
80566;BME280;69915;54.862;10.730;2024-01-25T09:36:16;101940.03;;;6.50;93.34
80566;BME280;69915;54.862;10.730;2024-01-25T09:38:41;101951.47;;;6.52;93.24
80566;BME280;69915;54.862;10.730;2024-01-25T09:41:07;101951.25;;;6.53;92.82
80566;BME280;69915;54.862;10.730;2024-01-25T09:43:33;101951.47;;;6.52;92.89
80566;BME280;69915;54.862;10.730;2024-01-25T09:45:59;101954.53;;;6.55;92.68
80566;BME280;69915;54.862;10.730;2024-01-25T09:48:25;101959.13;;;6.67;93.02
80566;BME280;69915;54.862;10.730;2024-01-25T09:50:54;101964.25;;;6.63;92.47
80566;BME280;69915;54.862;10.730;2024-01-25T09:53:24;101960.44;;;6.64;92.23
80566;BME280;69915;54.862;10.730;2024-01-25T09:56:10;101968.38;;;6.66;91.91
80566;BME280;69915;54.862;10.730;2024-01-25T09:58:43;101969.44;;;6.65;92.52
80566;BME280;69915;54.862;10.730;2024-01-25T10:01:15;101984.06;;;6.64;92.46
80566;BME280;69915;54.862;10.730;2024-01-25T10:03:47;101989.75;;;6.62;92.58
80566;BME280;69915;54.862;10.730;2024-01-25T10:06:13;101984.44;;;6.67;92.27
80566;BME280;69915;54.862;10.730;2024-01-25T10:08:40;101989.75;;;6.62;92.31
80566;BME280;69915;54.862;10.730;2024-01-25T10:11:06;101992.47;;;6.74;91.63
80566;BME280;69915;54.862;10.730;2024-01-25T10:13:43;101970.25;;;6.77;92.07
80566;BME280;69915;54.862;10.730;2024-01-25T10:16:13;101973.56;;;6.90;91.52
80566;BME280;69915;54.862;10.730;2024-01-25T10:18:41;101995.16;;;6.85;91.81
80566;BME280;69915;54.862;10.730;2024-01-25T10:21:09;101994.34;;;6.96;91.29
80566;BME280;69915;54.862;10.730;2024-01-25T10:23:35;101991.84;;;6.95;91.66
80566;BME280;69915;54.862;10.730;2024-01-25T10:26:00;102000.72;;;7.02;91.04
80566;BME280;69915;54.862;10.730;2024-01-25T10:28:26;102001.31;;;7.04;91.52
80566;BME280;69915;54.862;10.730;2024-01-25T10:30:56;102000.25;;;7.05;91.26
80566;BME280;69915;54.862;10.730;2024-01-25T10:33:24;102008.78;;;6.97;91.05
80566;BME280;69915;54.862;10.730;2024-01-25T10:35:50;101997.91;;;6.97;91.34
80566;BME280;69915;54.862;10.730;2024-01-25T10:38:20;102000.84;;;6.95;90.75
80566;BME280;69915;54.862;10.730;2024-01-25T10:40:49;102001.31;;;6.92;91.59
80566;BME280;69915;54.862;10.730;2024-01-25T10:43:15;101988.56;;;6.93;91.49
80566;BME280;69915;54.862;10.730;2024-01-25T10:45:41;101982.53;;;6.91;91.81
80566;BME280;69915;54.862;10.730;2024-01-25T10:48:07;101978.63;;;6.87;91.70
80566;BME280;69915;54.862;10.730;2024-01-25T10:50:32;101997.78;;;6.80;91.99
80566;BME280;69915;54.862;10.730;2024-01-25T10:52:58;101994.00;;;6.81;91.69
80566;BME280;69915;54.862;10.730;2024-01-25T10:55:24;101986.56;;;6.77;92.27
80566;BME280;69915;54.862;10.730;2024-01-25T10:57:51;101983.13;;;6.81;92.27
80566;BME280;69915;54.862;10.730;2024-01-25T11:00:17;101983.13;;;6.93;92.43
80566;BME280;69915;54.862;10.730;2024-01-25T11:02:44;101977.00;;;6.63;92.46
80566;BME280;69915;54.862;10.730;2024-01-25T11:05:15;101983.50;;;6.50;93.22
80566;BME280;69915;54.862;10.730;2024-01-25T11:07:46;101989.88;;;6.67;92.92
80566;BME280;69915;54.862;10.730;2024-01-25T11:10:24;102002.03;;;6.76;93.18
80566;BME280;69915;54.862;10.730;2024-01-25T11:12:57;101992.59;;;6.79;92.20
80566;BME280;69915;54.862;10.730;2024-01-25T11:17:55;102027.00;;;6.85;92.70
80566;BME280;69915;54.862;10.730;2024-01-25T11:20:23;102023.91;;;6.81;91.92
80566;BME280;69915;54.862;10.730;2024-01-25T11:22:48;102023.66;;;6.83;91.76
80566;BME280;69915;54.862;10.730;2024-01-25T11:25:20;102028.97;;;6.89;91.60
80566;BME280;69915;54.862;10.730;2024-01-25T11:27:48;102024.72;;;6.93;91.48
80566;BME280;69915;54.862;10.730;2024-01-25T11:30:14;102021.75;;;6.95;91.68
80566;BME280;69915;54.862;10.730;2024-01-25T11:32:39;102025.78;;;7.04;91.89
80566;BME280;69915;54.862;10.730;2024-01-25T11:35:08;102015.63;;;6.99;91.36
80566;BME280;69915;54.862;10.730;2024-01-25T11:37:36;102016.13;;;6.85;91.49
80566;BME280;69915;54.862;10.730;2024-01-25T11:40:02;102035.84;;;6.80;92.19
80566;BME280;69915;54.862;10.730;2024-01-25T11:42:28;102028.03;;;6.84;92.11
80566;BME280;69915;54.862;10.730;2024-01-25T11:44:56;102035.25;;;6.90;91.92
80566;BME280;69915;54.862;10.730;2024-01-25T11:47:22;102037.97;;;6.78;91.87
80566;BME280;69915;54.862;10.730;2024-01-25T11:49:47;102032.06;;;6.81;92.06
80566;BME280;69915;54.862;10.730;2024-01-25T11:52:12;102038.91;;;6.72;92.10
80566;BME280;69915;54.862;10.730;2024-01-25T11:54:38;102041.28;;;6.80;92.08
80566;BME280;69915;54.862;10.730;2024-01-25T11:57:04;102052.50;;;6.72;92.48
80566;BME280;69915;54.862;10.730;2024-01-25T11:59:30;102067.84;;;6.67;92.08
80566;BME280;69915;54.862;10.730;2024-01-25T12:01:56;102069.50;;;6.68;92.85
80566;BME280;69915;54.862;10.730;2024-01-25T12:04:21;102082.31;;;6.90;93.51
80566;BME280;69915;54.862;10.730;2024-01-25T12:06:47;102073.66;;;6.93;92.63
80566;BME280;69915;54.862;10.730;2024-01-25T12:09:15;102072.00;;;6.92;92.83
80566;BME280;69915;54.862;10.730;2024-01-25T12:11:41;102069.28;;;7.16;91.84
80566;BME280;69915;54.862;10.730;2024-01-25T12:14:09;102057.56;;;7.27;91.59
80566;BME280;69915;54.862;10.730;2024-01-25T12:16:35;102056.03;;;7.31;90.90
80566;BME280;69915;54.862;10.730;2024-01-25T12:19:00;102046.47;;;7.17;90.52
80566;BME280;69915;54.862;10.730;2024-01-25T12:21:26;102052.59;;;7.24;90.88
80566;BME280;69915;54.862;10.730;2024-01-25T12:23:51;102052.97;;;7.27;90.96
80566;BME280;69915;54.862;10.730;2024-01-25T12:26:17;102061.69;;;7.29;90.59
80566;BME280;69915;54.862;10.730;2024-01-25T12:28:42;102065.25;;;7.30;90.27
80566;BME280;69915;54.862;10.730;2024-01-25T12:31:08;102075.91;;;7.20;89.97
80566;BME280;69915;54.862;10.730;2024-01-25T12:33:34;102080.25;;;7.32;89.96
80566;BME280;69915;54.862;10.730;2024-01-25T12:36:02;102061.47;;;7.31;89.89
80566;BME280;69915;54.862;10.730;2024-01-25T12:38:27;102056.63;;;7.33;89.85
80566;BME280;69915;54.862;10.730;2024-01-25T12:40:54;102053.78;;;7.28;89.99
80566;BME280;69915;54.862;10.730;2024-01-25T12:43:20;102059.22;;;7.28;89.71
80566;BME280;69915;54.862;10.730;2024-01-25T12:45:48;102065.38;;;7.23;89.48
80566;BME280;69915;54.862;10.730;2024-01-25T12:48:14;102065.59;;;7.22;89.76